Time;durP1;ratioP1;P1;durP2;ratioP2;P2;SDS_P1;SDS_P2;PMS_P1;PMS_P2;Temp;Humidity;BMP_temperature;BMP_pressure;BME280_temperature;BME280_humidity;BME280_pressure;Samples;Min_cycle;Max_cycle;Signal;HPM_P1;HPM_P2
2023/01/30 00:01:18;;;;;;;63.40;27.95;;;1.90;99.90;;;;;;5075854;28;20135;-73
2023/01/30 00:03:45;;;;;;;61.55;27.65;;;1.90;99.90;;;;;;5088309;28;20097;-71
2023/01/30 00:06:12;;;;;;;57.67;23.77;;;1.90;99.90;;;;;;5054483;28;20039;-73
2023/01/30 00:08:39;;;;;;;57.88;26.50;;;1.90;99.90;;;;;;5087940;28;20075;-72
2023/01/30 00:11:09;;;;;;;66.65;29.48;;;1.90;99.90;;;;;;5069434;28;20042;-71
2023/01/30 00:13:36;;;;;;;61.08;25.33;;;1.90;99.90;;;;;;5085416;28;20032;-72
2023/01/30 00:16:03;;;;;;;56.00;23.60;;;1.90;99.90;;;;;;5067378;28;20044;-72
2023/01/30 00:18:30;;;;;;;60.45;28.73;;;1.90;99.90;;;;;;5083151;28;20127;-71
2023/01/30 00:20:58;;;;;;;59.15;26.40;;;1.90;99.90;;;;;;5067054;28;20427;-71
2023/01/30 00:23:26;;;;;;;70.00;28.98;;;1.90;99.90;;;;;;5084454;28;20058;-71
2023/01/30 00:25:53;;;;;;;64.55;29.02;;;1.90;99.90;;;;;;5071311;28;20217;-73
2023/01/30 00:28:20;;;;;;;62.55;28.95;;;1.90;99.90;;;;;;5089788;28;20050;-72
2023/01/30 00:30:49;;;;;;;61.15;26.40;;;2.00;99.90;;;;;;5065409;28;20062;-71
2023/01/30 00:33:17;;;;;;;66.38;29.52;;;2.00;99.90;;;;;;5069137;28;20080;-71
2023/01/30 00:35:44;;;;;;;62.28;28.80;;;2.00;99.90;;;;;;5065645;28;20463;-73
2023/01/30 00:38:13;;;;;;;66.75;28.80;;;2.00;99.90;;;;;;5089661;28;20036;-71
2023/01/30 00:40:42;;;;;;;63.33;28.05;;;2.00;99.90;;;;;;5069756;28;20036;-73
2023/01/30 00:48:54;;;;;;;66.20;29.00;;;2.10;99.90;;;;;;5073614;28;20308;-71
2023/01/30 00:51:20;;;;;;;60.50;25.80;;;2.00;99.90;;;;;;5075208;28;20032;-74
2023/01/30 00:53:47;;;;;;;69.68;28.33;;;2.10;99.90;;;;;;5077087;28;20044;-71
2023/01/30 00:56:14;;;;;;;66.07;28.83;;;2.10;99.90;;;;;;5063945;28;20054;-70
2023/01/30 00:58:40;;;;;;;71.97;29.42;;;2.10;99.90;;;;;;5064855;28;20048;-72
2023/01/30 01:01:10;;;;;;;59.88;25.73;;;2.10;99.90;;;;;;5073874;28;20059;-71
2023/01/30 01:03:36;;;;;;;56.72;26.23;;;2.10;99.90;;;;;;5066365;28;20040;-71
2023/01/30 01:06:03;;;;;;;68.50;28.15;;;2.10;99.90;;;;;;5070102;28;20066;-72
2023/01/30 01:08:30;;;;;;;65.97;27.33;;;2.10;99.90;;;;;;5066390;28;20042;-71
2023/01/30 01:10:57;;;;;;;62.35;27.48;;;2.20;99.90;;;;;;5067984;28;20417;-72
2023/01/30 01:13:24;;;;;;;65.72;27.45;;;2.20;99.90;;;;;;5073172;28;20399;-69
2023/01/30 01:15:51;;;;;;;65.82;26.95;;;2.20;99.90;;;;;;5076336;28;20512;-71
2023/01/30 01:18:18;;;;;;;71.65;30.13;;;2.20;99.90;;;;;;5050823;28;20063;-72
2023/01/30 01:20:45;;;;;;;72.05;30.67;;;2.20;99.90;;;;;;5067382;28;20698;-72
2023/01/30 01:23:12;;;;;;;65.18;28.20;;;2.20;99.90;;;;;;5078220;28;20032;-71
2023/01/30 01:25:38;;;;;;;64.55;30.23;;;2.30;99.90;;;;;;5076027;28;20036;-71
2023/01/30 01:28:05;;;;;;;72.57;31.38;;;2.30;99.90;;;;;;5065507;28;20035;-73
2023/01/30 01:30:32;;;;;;;50.15;24.65;;;2.30;99.90;;;;;;5075300;28;20051;-72
2023/01/30 01:32:58;;;;;;;73.45;31.40;;;2.30;99.90;;;;;;5077302;28;20048;-72
2023/01/30 01:35:26;;;;;;;58.40;28.15;;;2.30;99.90;;;;;;5075420;28;20052;-70
2023/01/30 01:37:54;;;;;;;63.72;29.48;;;2.30;99.90;;;;;;5076427;28;20281;-72
2023/01/30 01:43:24;;;;;;;67.68;29.65;;;2.40;99.90;;;;;;5067610;28;20067;-72
2023/01/30 01:45:57;;;;;;;79.13;31.35;;;2.30;99.90;;;;;;5064151;28;20813;-72
2023/01/30 01:48:33;;;;;;;70.05;27.92;;;2.30;99.90;;;;;;5063045;28;20044;-72
2023/01/30 01:51:05;;;;;;;75.35;29.65;;;2.30;99.90;;;;;;5076553;28;20050;-72
2023/01/30 01:53:37;;;;;;;83.03;32.58;;;2.30;99.90;;;;;;5054212;28;20483;-72
2023/01/30 01:56:05;;;;;;;72.68;30.95;;;2.20;99.90;;;;;;5054346;28;20040;-73
2023/01/30 01:58:40;;;;;;;87.65;28.83;;;2.30;99.90;;;;;;5038475;28;20043;-73
2023/01/30 02:01:07;;;;;;;92.93;34.53;;;2.30;99.90;;;;;;5037875;28;20044;-72
2023/01/30 02:03:43;;;;;;;88.47;33.95;;;2.30;99.90;;;;;;5055789;28;20396;-72
2023/01/30 02:06:12;;;;;;;92.68;35.85;;;2.30;99.90;;;;;;5052403;28;20053;-73
2023/01/30 02:08:44;;;;;;;85.97;34.70;;;2.30;99.90;;;;;;5054550;28;20442;-72
2023/01/30 02:11:32;;;;;;;88.78;32.30;;;2.30;99.90;;;;;;5054956;28;20530;-73
2023/01/30 02:14:00;;;;;;;91.60;34.95;;;2.40;99.90;;;;;;5035559;28;20047;-72
2023/01/30 02:16:26;;;;;;;77.10;32.25;;;2.30;99.90;;;;;;5054208;28;20041;-72
2023/01/30 02:18:54;;;;;;;97.32;36.60;;;2.40;99.90;;;;;;5054892;28;20525;-69
2023/01/30 02:21:47;;;;;;;89.90;34.33;;;2.40;99.90;;;;;;5055346;28;20525;-70
2023/01/30 02:24:26;;;;;;;73.90;28.58;;;2.40;99.90;;;;;;5052190;28;20040;-70
2023/01/30 02:27:09;;;;;;;95.20;35.08;;;2.40;99.90;;;;;;5037406;28;20433;-70
2023/01/30 02:30:00;;;;;;;90.28;33.88;;;2.40;99.90;;;;;;5056623;28;20051;-70
2023/01/30 02:33:00;;;;;;;93.82;34.47;;;2.50;99.90;;;;;;5035128;28;20043;-69
2023/01/30 02:36:03;;;;;;;90.15;36.80;;;2.50;99.90;;;;;;5035698;28;20050;-69
2023/01/30 02:38:29;;;;;;;87.85;33.00;;;2.50;99.90;;;;;;5055433;28;20037;-70
2023/01/30 02:41:37;;;;;;;105.22;37.95;;;2.50;99.90;;;;;;5055302;28;20052;-70
2023/01/30 02:44:10;;;;;;;90.88;35.15;;;2.60;99.90;;;;;;5031859;28;20071;-70
2023/01/30 02:46:51;;;;;;;95.75;37.90;;;2.60;99.90;;;;;;5052618;28;20033;-70
2023/01/30 02:49:28;;;;;;;94.57;34.95;;;2.60;99.90;;;;;;5053541;28;20082;-71
2023/01/30 02:51:56;;;;;;;81.90;33.33;;;2.60;99.90;;;;;;5055532;28;20036;-71
2023/01/30 02:54:23;;;;;;;86.97;33.97;;;2.60;99.90;;;;;;5096080;28;20036;-71
2023/01/30 02:56:53;;;;;;;96.60;36.50;;;2.60;99.90;;;;;;5081932;28;20074;-70
2023/01/30 02:59:30;;;;;;;76.25;31.05;;;2.60;99.90;;;;;;5071110;28;20190;-71
2023/01/30 03:02:12;;;;;;;96.18;34.60;;;2.70;99.90;;;;;;5072797;28;20065;-70
2023/01/30 03:04:57;;;;;;;89.65;35.63;;;2.70;99.90;;;;;;5070537;28;20052;-72
2023/01/30 03:07:33;;;;;;;71.60;32.65;;;2.70;99.90;;;;;;5069113;28;20716;-70
2023/01/30 03:10:35;;;;;;;83.88;29.88;;;2.70;99.90;;;;;;5055450;28;20051;-71
2023/01/30 03:13:19;;;;;;;80.75;30.50;;;2.80;99.90;;;;;;5070032;28;20041;-70
2023/01/30 03:16:01;;;;;;;73.90;29.80;;;2.70;99.90;;;;;;5067051;28;20048;-71
2023/01/30 03:18:28;;;;;;;85.00;31.90;;;2.80;99.90;;;;;;5072409;28;20409;-71
2023/01/30 03:20:55;;;;;;;95.55;35.58;;;2.80;99.90;;;;;;5073331;28;20036;-71
2023/01/30 03:23:21;;;;;;;71.78;30.15;;;2.80;99.90;;;;;;5066067;28;20098;-72
2023/01/30 03:25:48;;;;;;;75.80;30.52;;;2.80;99.90;;;;;;5087217;28;20039;-71
2023/01/30 03:28:18;;;;;;;82.18;31.70;;;2.80;99.90;;;;;;5042089;28;20106;-72
2023/01/30 03:30:45;;;;;;;85.47;34.03;;;2.80;99.90;;;;;;5086658;28;20043;-71
2023/01/30 03:33:12;;;;;;;94.25;33.45;;;2.80;99.90;;;;;;5076188;28;20216;-71
2023/01/30 03:35:45;;;;;;;94.47;33.33;;;2.80;99.90;;;;;;5073299;28;20035;-70
2023/01/30 03:38:13;;;;;;;106.55;38.92;;;2.90;99.90;;;;;;5073411;28;20127;-73
2023/01/30 03:40:43;;;;;;;101.68;35.25;;;2.90;99.90;;;;;;5072404;28;20043;-72
2023/01/30 03:43:09;;;;;;;109.78;38.13;;;2.90;99.90;;;;;;5057891;28;20054;-72
2023/01/30 03:45:36;;;;;;;108.03;35.85;;;2.90;99.90;;;;;;5059738;28;20157;-73
2023/01/30 03:48:03;;;;;;;114.00;36.13;;;2.90;99.90;;;;;;5085337;28;20048;-72
2023/01/30 03:50:31;;;;;;;121.65;41.03;;;2.90;99.90;;;;;;5063157;28;20037;-73
2023/01/30 03:52:59;;;;;;;136.18;42.47;;;2.90;99.90;;;;;;5072781;22;20104;-79
2023/01/30 03:55:26;;;;;;;99.28;37.92;;;2.90;99.90;;;;;;5043852;28;20421;-81
2023/01/30 03:57:56;;;;;;;118.50;38.78;;;2.90;99.90;;;;;;5059339;28;20059;-81
2023/01/30 04:00:26;;;;;;;96.05;30.58;;;2.90;99.90;;;;;;5072798;22;20036;-72
2023/01/30 04:02:54;;;;;;;97.10;35.50;;;3.00;99.90;;;;;;5031398;28;20066;-73
2023/01/30 04:05:20;;;;;;;126.78;42.60;;;3.00;99.90;;;;;;5034504;28;20045;-74
2023/01/30 04:07:55;;;;;;;105.22;35.75;;;3.00;99.90;;;;;;5042999;28;20048;-74
2023/01/30 04:10:22;;;;;;;139.38;45.92;;;3.00;99.90;;;;;;5037193;28;20041;-74
2023/01/30 04:12:49;;;;;;;149.70;44.40;;;3.10;99.90;;;;;;5035591;28;20037;-74
2023/01/30 04:15:17;;;;;;;128.18;42.05;;;3.10;99.90;;;;;;5043298;28;20041;-73
2023/01/30 04:18:11;;;;;;;142.50;41.22;;;3.10;99.90;;;;;;5031141;28;20037;-75
2023/01/30 04:20:48;;;;;;;140.65;42.60;;;3.10;99.90;;;;;;5019051;28;20438;-73
2023/01/30 04:23:19;;;;;;;141.60;43.38;;;3.10;99.90;;;;;;5040094;28;20129;-73
2023/01/30 04:25:47;;;;;;;132.70;41.25;;;3.20;99.90;;;;;;5037349;28;21320;-72
2023/01/30 04:28:16;;;;;;;150.48;44.75;;;3.20;99.90;;;;;;5041160;28;20068;-75
2023/01/30 04:30:43;;;;;;;120.70;39.42;;;3.30;99.90;;;;;;5042141;28;20040;-71
2023/01/30 04:33:29;;;;;;;127.28;41.35;;;3.30;99.90;;;;;;5057468;28;20098;-71
2023/01/30 04:36:00;;;;;;;161.65;45.13;;;3.30;99.90;;;;;;5048546;28;20417;-73
2023/01/30 04:38:28;;;;;;;157.15;47.10;;;3.30;99.90;;;;;;5034803;28;20055;-72
2023/01/30 04:40:56;;;;;;;128.77;40.00;;;3.40;99.90;;;;;;5049789;28;20052;-73
2023/01/30 04:43:27;;;;;;;117.65;40.13;;;3.40;99.90;;;;;;5036308;28;20503;-72
2023/01/30 04:46:13;;;;;;;103.38;35.83;;;3.40;99.90;;;;;;5051370;28;20188;-73
2023/01/30 04:48:40;;;;;;;112.60;37.08;;;3.50;99.90;;;;;;5050212;28;20307;-73
2023/01/30 04:51:08;;;;;;;146.85;44.05;;;3.50;99.90;;;;;;5039364;28;20433;-73
2023/01/30 04:53:36;;;;;;;117.43;39.80;;;3.50;99.90;;;;;;5049297;28;20144;-73
2023/01/30 04:56:03;;;;;;;106.50;37.35;;;3.50;99.90;;;;;;5045153;28;20456;-74
2023/01/30 04:58:30;;;;;;;115.00;37.30;;;3.50;99.90;;;;;;5045148;28;20052;-74
2023/01/30 05:01:20;;;;;;;96.75;32.55;;;3.50;99.90;;;;;;5045878;28;20109;-73
2023/01/30 05:03:51;;;;;;;108.18;36.33;;;3.50;99.90;;;;;;5043991;28;20071;-74
2023/01/30 05:06:19;;;;;;;123.32;40.03;;;3.50;99.90;;;;;;5050697;28;20041;-74
2023/01/30 05:08:53;;;;;;;126.07;42.22;;;3.40;99.90;;;;;;5055188;28;20499;-73
2023/01/30 05:11:22;;;;;;;100.80;34.33;;;3.50;99.90;;;;;;5046642;28;20521;-74
2023/01/30 05:13:49;;;;;;;113.75;39.10;;;3.50;99.90;;;;;;5054710;28;20047;-74
2023/01/30 05:16:17;;;;;;;113.03;37.10;;;3.50;99.90;;;;;;5058715;28;20040;-74
2023/01/30 05:18:44;;;;;;;101.35;35.95;;;3.50;99.90;;;;;;5047005;28;20430;-75
2023/01/30 05:21:14;;;;;;;134.95;41.53;;;3.50;99.90;;;;;;5033591;28;20499;-74
2023/01/30 05:23:41;;;;;;;135.45;43.10;;;3.50;99.90;;;;;;5034244;28;20052;-75
2023/01/30 05:26:08;;;;;;;148.38;47.42;;;3.50;99.90;;;;;;5056975;28;20044;-75
2023/01/30 05:28:35;;;;;;;141.43;43.42;;;3.50;99.90;;;;;;5047229;28;20103;-76
2023/01/30 05:31:10;;;;;;;131.57;42.55;;;3.50;99.90;;;;;;5045441;28;20044;-76
2023/01/30 05:33:38;;;;;;;130.50;40.58;;;3.50;99.90;;;;;;5045444;28;20102;-75
2023/01/30 05:36:05;;;;;;;144.63;44.38;;;3.50;99.90;;;;;;5057462;28;20067;-76
2023/01/30 05:38:32;;;;;;;140.07;43.65;;;3.50;99.90;;;;;;5046343;28;20071;-76
2023/01/30 05:41:06;;;;;;;86.97;33.08;;;3.50;99.90;;;;;;5054907;28;20055;-75
2023/01/30 05:43:34;;;;;;;154.23;48.13;;;3.50;99.90;;;;;;5048846;28;20047;-76
2023/01/30 05:46:03;;;;;;;87.70;33.05;;;3.50;99.90;;;;;;5046637;28;20684;-76
2023/01/30 05:48:30;;;;;;;140.68;45.53;;;3.50;99.90;;;;;;5049804;28;20401;-76
2023/01/30 05:50:58;;;;;;;122.90;40.25;;;3.50;99.90;;;;;;5028041;28;20048;-77
2023/01/30 05:53:30;;;;;;;124.65;42.15;;;3.50;99.90;;;;;;5058521;28;20047;-76
2023/01/30 05:55:58;;;;;;;142.48;46.10;;;3.50;99.90;;;;;;5047590;28;20037;-77
2023/01/30 05:58:26;;;;;;;144.25;47.85;;;3.60;99.90;;;;;;5057818;28;20111;-76
2023/01/30 06:00:53;;;;;;;131.88;41.00;;;3.60;99.90;;;;;;5051509;28;20691;-76
2023/01/30 06:03:20;;;;;;;141.10;46.95;;;3.60;99.90;;;;;;5045631;28;20049;-76
2023/01/30 06:05:47;;;;;;;132.13;47.22;;;3.60;99.90;;;;;;5044112;28;20068;-77
2023/01/30 06:08:13;;;;;;;128.40;41.80;;;3.60;99.90;;;;;;5054898;28;20032;-77
2023/01/30 06:10:40;;;;;;;115.70;40.03;;;3.60;99.90;;;;;;5052805;28;20044;-77
2023/01/30 06:13:09;;;;;;;132.23;42.28;;;3.60;99.90;;;;;;5057169;28;20044;-77
2023/01/30 06:15:36;;;;;;;110.43;37.17;;;3.70;99.90;;;;;;5051397;28;20040;-77
2023/01/30 06:18:03;;;;;;;123.00;41.17;;;3.70;99.90;;;;;;5053388;28;20045;-77
2023/01/30 06:20:30;;;;;;;138.07;44.83;;;3.70;99.90;;;;;;5031092;28;20109;-77
2023/01/30 06:22:56;;;;;;;138.90;43.85;;;3.70;99.90;;;;;;5054800;28;20036;-78
2023/01/30 06:25:23;;;;;;;133.20;44.08;;;3.70;99.90;;;;;;5053742;28;20072;-78
2023/01/30 06:27:50;;;;;;;125.53;45.13;;;3.70;99.90;;;;;;5055495;28;20046;-77
2023/01/30 06:30:16;;;;;;;109.00;38.72;;;3.70;99.90;;;;;;5060874;28;20072;-78
2023/01/30 06:32:43;;;;;;;132.73;41.92;;;3.80;99.90;;;;;;5058793;28;20048;-77
2023/01/30 06:35:10;;;;;;;104.78;39.80;;;3.80;99.90;;;;;;5061532;28;20136;-77
2023/01/30 06:37:36;;;;;;;105.43;38.10;;;3.80;99.90;;;;;;5026312;28;20056;-78
2023/01/30 06:40:03;;;;;;;126.88;44.92;;;3.80;99.90;;;;;;5058132;28;20043;-77
2023/01/30 06:42:30;;;;;;;97.18;36.30;;;3.90;99.90;;;;;;5053548;28;20037;-78
2023/01/30 06:44:57;;;;;;;114.63;38.75;;;3.90;99.90;;;;;;5052514;28;20047;-78
2023/01/30 06:47:23;;;;;;;97.60;37.80;;;3.80;99.90;;;;;;5036846;28;20041;-77
2023/01/30 06:49:50;;;;;;;123.53;41.45;;;3.90;99.90;;;;;;5045253;28;20040;-77
2023/01/30 06:52:17;;;;;;;93.80;36.25;;;3.90;99.90;;;;;;5038601;28;20087;-77
2023/01/30 06:54:43;;;;;;;98.30;35.88;;;3.90;99.90;;;;;;5062140;28;20072;-78
2023/01/30 06:57:11;;;;;;;68.22;27.80;;;3.90;99.90;;;;;;5033419;28;20067;-78
2023/01/30 06:59:38;;;;;;;80.95;30.52;;;3.90;99.90;;;;;;5057172;28;20572;-77
2023/01/30 07:02:04;;;;;;;56.03;21.92;;;3.90;99.90;;;;;;5067998;28;20037;-78
2023/01/30 07:04:31;;;;;;;49.95;20.73;;;3.90;99.90;;;;;;5063457;28;20073;-79
2023/01/30 07:06:58;;;;;;;40.15;16.75;;;3.80;99.90;;;;;;5050870;28;20033;-79
2023/01/30 07:09:24;;;;;;;29.05;12.52;;;3.70;99.90;;;;;;5043975;28;20033;-78
2023/01/30 07:11:51;;;;;;;26.08;11.13;;;3.70;99.90;;;;;;5038782;28;20040;-79
2023/01/30 07:14:18;;;;;;;37.08;12.75;;;3.70;99.90;;;;;;5078332;28;20039;-79
2023/01/30 07:16:44;;;;;;;26.27;12.50;;;3.70;99.90;;;;;;5052020;28;20085;-78
2023/01/30 07:19:11;;;;;;;28.40;13.48;;;3.80;99.90;;;;;;5040492;28;20044;-79
2023/01/30 07:21:38;;;;;;;25.50;12.82;;;3.70;99.90;;;;;;5056838;28;20066;-79
2023/01/30 07:24:05;;;;;;;22.58;11.63;;;3.70;99.90;;;;;;5087081;28;20111;-76
2023/01/30 07:26:31;;;;;;;24.15;11.60;;;3.60;99.90;;;;;;5064532;28;20206;-77
2023/01/30 07:28:58;;;;;;;26.95;14.85;;;3.60;99.90;;;;;;5068766;28;20029;-76
2023/01/30 07:31:25;;;;;;;22.83;11.23;;;3.70;99.90;;;;;;5070274;28;20024;-77
2023/01/30 07:33:51;;;;;;;28.55;12.30;;;3.60;99.90;;;;;;5063245;28;20051;-76
2023/01/30 07:36:18;;;;;;;18.05;8.70;;;3.60;99.90;;;;;;5063274;28;20044;-77
2023/01/30 07:38:48;;;;;;;17.90;9.02;;;3.60;99.90;;;;;;5055453;28;20608;-77
2023/01/30 07:41:14;;;;;;;24.13;11.55;;;3.60;99.90;;;;;;5044152;28;20037;-76
2023/01/30 07:43:41;;;;;;;22.77;10.55;;;3.60;99.90;;;;;;5054928;28;20051;-77
2023/01/30 07:46:08;;;;;;;25.30;10.85;;;3.60;99.90;;;;;;5056741;28;20043;-77
2023/01/30 07:48:34;;;;;;;22.65;10.35;;;3.50;99.90;;;;;;5066189;28;20646;-76
2023/01/30 07:51:01;;;;;;;15.95;8.70;;;3.40;99.90;;;;;;5044037;28;20520;-77
2023/01/30 07:53:28;;;;;;;19.23;8.95;;;3.40;99.90;;;;;;5042705;28;20568;-78
2023/01/30 07:55:55;;;;;;;22.27;7.65;;;3.30;99.90;;;;;;5062029;28;20050;-77
2023/01/30 07:58:21;;;;;;;11.88;6.68;;;3.30;99.90;;;;;;5084219;28;20104;-78
2023/01/30 08:00:48;;;;;;;21.73;7.10;;;3.30;99.90;;;;;;5063930;28;20126;-77
2023/01/30 08:03:16;;;;;;;19.40;7.97;;;3.20;99.90;;;;;;5060752;28;20456;-77
2023/01/30 08:05:45;;;;;;;17.63;6.38;;;3.20;99.90;;;;;;5048763;28;20048;-77
2023/01/30 08:08:12;;;;;;;27.60;6.40;;;3.20;99.90;;;;;;5048049;28;20041;-77
2023/01/30 08:10:39;;;;;;;13.38;5.75;;;3.20;99.90;;;;;;5049796;28;20045;-76
2023/01/30 08:13:06;;;;;;;24.80;6.88;;;3.20;99.90;;;;;;5054764;28;20138;-76
2023/01/30 08:15:32;;;;;;;19.60;7.82;;;3.20;99.90;;;;;;5035871;28;20063;-77
2023/01/30 08:18:00;;;;;;;18.10;6.45;;;3.30;99.90;;;;;;5045962;28;20061;-76
2023/01/30 08:20:27;;;;;;;28.58;6.93;;;3.30;99.90;;;;;;5037435;28;20046;-77
2023/01/30 08:22:54;;;;;;;12.80;5.68;;;3.30;99.90;;;;;;5044658;28;21120;-77
2023/01/30 08:25:21;;;;;;;18.33;7.07;;;3.40;99.90;;;;;;5047734;28;20052;-76
2023/01/30 08:27:48;;;;;;;19.67;8.38;;;3.40;99.90;;;;;;5053577;28;20051;-76
2023/01/30 08:30:15;;;;;;;15.35;6.47;;;3.40;99.90;;;;;;5042642;28;20133;-77
2023/01/30 08:32:42;;;;;;;12.93;7.38;;;3.40;99.90;;;;;;5026697;28;20048;-76
2023/01/30 08:35:09;;;;;;;18.48;7.25;;;3.50;99.90;;;;;;5057141;28;20056;-75
2023/01/30 08:37:38;;;;;;;23.92;7.07;;;3.50;99.90;;;;;;5053154;28;20036;-77
2023/01/30 08:40:07;;;;;;;17.27;6.85;;;3.50;99.90;;;;;;5044940;28;20041;-76
2023/01/30 08:42:33;;;;;;;21.42;7.10;;;3.60;99.90;;;;;;5051209;28;20036;-77
2023/01/30 08:45:00;;;;;;;18.83;7.32;;;3.60;99.90;;;;;;5037360;28;20041;-77
2023/01/30 08:47:27;;;;;;;23.70;7.55;;;3.60;99.90;;;;;;5046039;28;20499;-75
2023/01/30 08:49:54;;;;;;;23.23;6.65;;;3.70;99.90;;;;;;5053646;28;20051;-76
2023/01/30 08:52:21;;;;;;;20.85;7.10;;;3.70;99.90;;;;;;5057336;28;20032;-77
2023/01/30 08:54:47;;;;;;;25.70;7.25;;;3.80;99.90;;;;;;5045657;28;20060;-76
2023/01/30 08:57:14;;;;;;;24.27;7.80;;;3.80;99.90;;;;;;5056877;28;20064;-76
2023/01/30 08:59:41;;;;;;;21.88;5.93;;;3.80;99.90;;;;;;5049554;28;20322;-76
2023/01/30 09:02:11;;;;;;;20.90;7.32;;;3.80;99.90;;;;;;5051749;28;20045;-75
2023/01/30 09:04:38;;;;;;;21.63;5.93;;;3.90;99.90;;;;;;5056057;28;20041;-74
2023/01/30 09:07:05;;;;;;;21.02;6.20;;;4.00;99.90;;;;;;5044777;28;20907;-76
2023/01/30 09:09:32;;;;;;;20.13;7.40;;;4.00;99.90;;;;;;5043293;28;20615;-76
2023/01/30 09:11:58;;;;;;;23.02;5.88;;;4.10;99.90;;;;;;5057693;28;20048;-75
2023/01/30 09:14:25;;;;;;;34.42;7.60;;;4.30;99.90;;;;;;5061184;28;20098;-75
2023/01/30 09:16:54;;;;;;;24.08;6.63;;;4.40;99.90;;;;;;5050791;28;20565;-76
2023/01/30 09:19:25;;;;;;;20.75;6.35;;;4.50;99.90;;;;;;5050744;28;20066;-76
2023/01/30 09:21:53;;;;;;;21.85;5.07;;;4.60;99.90;;;;;;5053794;28;20487;-75
2023/01/30 09:24:25;;;;;;;20.77;5.72;;;4.50;99.90;;;;;;5040458;28;20036;-76
2023/01/30 09:26:58;;;;;;;23.77;5.85;;;4.50;99.90;;;;;;5057511;28;20132;-77
2023/01/30 09:29:26;;;;;;;20.65;5.10;;;4.40;99.90;;;;;;5058381;28;20083;-76
2023/01/30 09:31:55;;;;;;;31.10;7.03;;;4.40;99.90;;;;;;5048203;28;20044;-76
2023/01/30 09:34:27;;;;;;;22.92;6.00;;;4.40;99.90;;;;;;5039794;28;20078;-77
2023/01/30 09:36:55;;;;;;;26.85;5.85;;;4.40;99.90;;;;;;5057548;28;20438;-74
2023/01/30 09:39:22;;;;;;;17.30;5.32;;;4.40;99.90;;;;;;5061005;28;20131;-76
2023/01/30 09:42:01;;;;;;;26.98;6.60;;;4.40;99.90;;;;;;5066602;28;20121;-76
2023/01/30 09:44:52;;;;;;;24.42;7.88;;;4.40;99.90;;;;;;5075233;28;20067;-74
2023/01/30 09:47:49;;;;;;;15.70;5.82;;;4.40;99.90;;;;;;5069715;28;20079;-75
2023/01/30 09:50:36;;;;;;;23.55;5.78;;;4.40;99.90;;;;;;5035046;28;20078;-76
2023/01/30 09:53:30;;;;;;;19.90;6.30;;;4.30;99.90;;;;;;5082219;22;20041;-78
2023/01/30 09:56:01;;;;;;;24.65;6.65;;;4.30;99.90;;;;;;5067774;28;20036;-78
2023/01/30 09:58:41;;;;;;;22.90;6.25;;;4.30;99.90;;;;;;5039192;28;20592;-79
2023/01/30 10:01:19;;;;;;;23.90;7.07;;;4.30;99.90;;;;;;5059141;28;20076;-79
2023/01/30 10:04:23;;;;;;;20.63;5.50;;;4.40;99.90;;;;;;5058269;28;20530;-80
2023/01/30 10:07:06;;;;;;;31.67;8.00;;;4.40;99.90;;;;;;5034999;28;20493;-78
2023/01/30 10:09:44;;;;;;;19.55;7.53;;;4.50;99.90;;;;;;5036085;28;20047;-80
2023/01/30 10:12:29;;;;;;;27.45;8.68;;;4.50;99.90;;;;;;5060117;28;20033;-81
2023/01/30 10:15:13;;;;;;;27.33;9.23;;;4.60;99.90;;;;;;5049528;28;20457;-77
2023/01/30 10:18:02;;;;;;;25.17;8.57;;;4.60;99.90;;;;;;5035909;28;20500;-78
2023/01/30 10:20:38;;;;;;;26.77;8.45;;;4.60;99.90;;;;;;5051604;28;20058;-77
2023/01/30 10:23:30;;;;;;;16.73;6.85;;;4.50;99.90;;;;;;5053030;28;20127;-79
2023/01/30 10:26:19;;;;;;;32.30;7.68;;;4.50;99.90;;;;;;5036430;28;20128;-78
2023/01/30 10:28:53;;;;;;;13.60;6.55;;;4.50;99.90;;;;;;5061645;28;20135;-78
2023/01/30 10:31:41;;;;;;;18.65;7.40;;;4.50;99.90;;;;;;5059724;28;20529;-79
2023/01/30 10:34:23;;;;;;;;;;;4.50;99.90;;;;;;5048626;28;20087;-78
2023/01/30 10:37:00;;;;;;;19.58;7.50;;;4.50;99.90;;;;;;5059018;28;19924;-78
2023/01/30 10:39:57;;;;;;;25.45;8.80;;;4.50;99.90;;;;;;5061530;28;20052;-81
2023/01/30 10:42:41;;;;;;;25.10;9.05;;;4.50;99.90;;;;;;5049953;28;20127;-77
2023/01/30 10:45:13;;;;;;;23.15;11.38;;;4.50;99.90;;;;;;5052293;28;20139;-79
2023/01/30 10:47:51;;;;;;;26.38;11.35;;;4.60;99.90;;;;;;5067967;28;20503;-78
2023/01/30 10:50:27;;;;;;;26.63;13.98;;;4.60;99.90;;;;;;5060195;28;20207;-77
2023/01/30 10:53:16;;;;;;;22.23;13.52;;;4.60;99.90;;;;;;5049944;28;20060;-82
2023/01/30 10:56:28;;;;;;;22.67;14.45;;;4.70;99.90;;;;;;5059190;28;20075;-79
2023/01/30 10:59:18;;;;;;;31.70;12.05;;;4.70;99.90;;;;;;5062103;28;20063;-79
2023/01/30 11:01:50;;;;;;;26.38;13.68;;;4.70;99.90;;;;;;5054581;28;20098;-79
2023/01/30 11:04:19;;;;;;;23.85;15.02;;;4.70;99.90;;;;;;5057478;28;20040;-80
2023/01/30 11:06:47;;;;;;;14.43;12.13;;;4.70;99.90;;;;;;5059598;28;20068;-79
2023/01/30 11:09:14;;;;;;;21.20;12.23;;;4.60;99.90;;;;;;5056986;28;20044;-78
2023/01/30 11:11:52;;;;;;;29.48;14.70;;;4.70;99.90;;;;;;5044042;28;20107;-78
2023/01/30 11:14:19;;;;;;;23.98;13.45;;;4.70;99.90;;;;;;5047673;28;20033;-78
2023/01/30 11:16:56;;;;;;;29.95;13.93;;;4.70;99.90;;;;;;5053409;28;20050;-78
2023/01/30 11:19:31;;;;;;;21.88;12.45;;;4.70;99.90;;;;;;5055909;28;20525;-80
2023/01/30 11:22:03;;;;;;;25.20;12.85;;;4.70;99.90;;;;;;5035643;28;20050;-79
2023/01/30 11:24:37;;;;;;;29.17;13.90;;;4.70;99.90;;;;;;5057708;28;20058;-80
2023/01/30 11:27:24;;;;;;;29.27;15.20;;;4.70;99.90;;;;;;5051728;28;20064;-78
2023/01/30 11:30:14;;;;;;;25.08;13.15;;;4.70;99.90;;;;;;5040658;28;20338;-77
2023/01/30 11:32:45;;;;;;;21.77;12.73;;;4.70;99.90;;;;;;5036095;28;20045;-77
2023/01/30 11:35:14;;;;;;;25.00;11.63;;;4.70;99.90;;;;;;5067176;28;20607;-79
2023/01/30 11:37:43;;;;;;;26.35;11.07;;;4.70;99.90;;;;;;5053186;28;20051;-78
2023/01/30 11:40:16;;;;;;;29.50;11.30;;;4.80;99.90;;;;;;5050235;28;20094;-81
2023/01/30 11:42:45;;;;;;;24.55;10.50;;;4.80;99.90;;;;;;5057499;28;20048;-79
2023/01/30 11:45:12;;;;;;;24.08;13.15;;;4.80;99.90;;;;;;5060032;28;20540;-79
2023/01/30 11:47:50;;;;;;;21.40;11.15;;;4.90;99.90;;;;;;5047540;28;20080;-79
2023/01/30 11:50:30;;;;;;;24.73;10.25;;;4.90;99.90;;;;;;5052395;28;20188;-80
2023/01/30 11:53:06;;;;;;;14.13;9.73;;;4.90;99.90;;;;;;5048393;28;20049;-79
2023/01/30 11:55:36;;;;;;;14.73;11.98;;;5.00;99.90;;;;;;5043715;28;20500;-79
2023/01/30 11:58:06;;;;;;;18.77;12.48;;;5.00;99.90;;;;;;5041668;28;20036;-79
2023/01/30 12:00:42;;;;;;;26.92;14.82;;;5.00;99.90;;;;;;5056633;28;20436;-78
2023/01/30 12:03:13;;;;;;;26.42;13.65;;;5.00;99.90;;;;;;5060621;28;20051;-78
2023/01/30 12:05:43;;;;;;;33.53;15.57;;;5.10;99.90;;;;;;5032376;28;20671;-78
2023/01/30 12:08:25;;;;;;;26.75;19.40;;;5.10;99.90;;;;;;5062125;28;20040;-79
2023/01/30 12:11:25;;;;;;;28.52;18.05;;;5.10;99.90;;;;;;5048506;28;20071;-79
2023/01/30 12:14:04;;;;;;;18.92;16.63;;;5.10;99.90;;;;;;5060056;28;20063;-79
2023/01/30 12:17:03;;;;;;;25.42;16.17;;;5.00;99.90;;;;;;5044873;28;20454;-78
2023/01/30 12:19:46;;;;;;;23.05;16.45;;;5.00;99.90;;;;;;5069379;28;20490;-79
2023/01/30 12:22:36;;;;;;;23.80;14.38;;;4.90;99.90;;;;;;5051210;28;20092;-80
2023/01/30 12:25:25;;;;;;;28.63;19.23;;;5.00;99.90;;;;;;5066789;28;20079;-79
2023/01/30 12:28:13;;;;;;;20.48;18.23;;;5.00;99.90;;;;;;5051060;28;20065;-78
2023/01/30 12:30:55;;;;;;;19.90;13.82;;;5.00;99.90;;;;;;5074626;28;20135;-78
2023/01/30 12:33:27;;;;;;;23.75;13.93;;;5.00;99.90;;;;;;5055166;28;20689;-76
2023/01/30 12:36:20;;;;;;;22.95;14.32;;;5.00;99.90;;;;;;5081522;28;20054;-77
2023/01/30 12:39:25;;;;;;;17.10;14.43;;;4.90;99.90;;;;;;5069905;28;20505;-79
2023/01/30 12:42:25;;;;;;;21.83;15.20;;;4.90;99.90;;;;;;5045304;28;20077;-78
2023/01/30 12:45:22;;;;;;;27.92;15.80;;;4.90;99.90;;;;;;5064771;28;20064;-79
2023/01/30 12:48:20;;;;;;;25.85;16.90;;;4.90;99.90;;;;;;5043140;28;20048;-80
2023/01/30 12:51:15;;;;;;;21.85;17.15;;;5.10;99.90;;;;;;5071155;28;20082;-80
2023/01/30 12:54:03;;;;;;;28.45;16.80;;;5.10;99.90;;;;;;5059614;28;20112;-78
2023/01/30 12:56:56;;;;;;;28.77;17.42;;;5.20;99.90;;;;;;5054009;28;20098;-78
2023/01/30 12:59:35;;;;;;;22.98;20.55;;;5.30;99.90;;;;;;5045164;28;20048;-80
2023/01/30 13:02:18;;;;;;;31.02;21.33;;;5.30;99.90;;;;;;5066679;28;20505;-79
2023/01/30 13:04:56;;;;;;;24.55;18.30;;;5.40;99.90;;;;;;5055132;28;20549;-82
2023/01/30 13:07:44;;;;;;;26.38;19.25;;;5.30;99.90;;;;;;5056450;28;20043;-78
2023/01/30 13:10:32;;;;;;;26.33;18.45;;;5.30;99.90;;;;;;5057829;28;20098;-79
2023/01/30 13:13:18;;;;;;;21.92;18.15;;;5.20;99.90;;;;;;5048046;28;20040;-80
2023/01/30 13:16:02;;;;;;;44.75;20.33;;;5.20;99.90;;;;;;5056402;28;20059;-79